East Lempster, New Hampshire
Current Conditions -  °F | °C
As of 10:07 AM on Monday 22 Dec 2014 (Local Time) from KVSF Reporting Station
Overcast Overcast  
Wind Chill: 30°   Ceiling: 2200
Heat Index: 30°   Visibility: 7mi
Dew Point: 27°   Wind: 0mph
Humidity: 88%   Direction: NA
Pressure: 30.39"   Gusts: NA
Location:  43.2136°N, 72.1592°W
Report Text: KVSF 221507Z AUTO 00000KT 7SM BKN022 OVC039 M01/M03 A3039 RMK AO2 T10111028 TSNO
Loading
Personal Weather Stations






























Interactive Weather Map New forecast layout! Learn more

10-Day Weather Forecast

Advertisements
Track Severe Weather on mobile